Fort Myers, Florida
Current Conditions -  °F | °C
As of 9:53 PM on Sunday 21 Dec 2014 (Local Time) from KFMY Reporting Station
Light Rain Light Rain  
Wind Chill: 71°   Ceiling: 8500
Heat Index: 71°   Visibility: 5mi
Dew Point: 67°   Wind: 3mph
Humidity: 87%   Direction: 130°SE
Pressure: 30.03"   Gusts: NA
Location:  26.64°N, 81.87°W
Report Text: KFMY 220253Z 13003KT 5SM -RA BR OVC085 22/19 A3003 RMK AO2 RAB08E21B42 SLP171 P0003 60003 T02170194 52007
Loading
Personal Weather Stations






























Interactive Weather Map New forecast layout! Learn more

10-Day Weather Forecast

Advertisements
Track Severe Weather on mobile